createdAt,value
2023-05-14T00:02:02.928Z,37.13
2023-05-14T00:05:06.822Z,36.60
2023-05-14T00:08:09.910Z,36.43
2023-05-14T00:11:14.419Z,36.53
2023-05-14T00:14:17.451Z,37.83
2023-05-14T00:17:20.559Z,37.73
2023-05-14T00:20:23.809Z,38.10
2023-05-14T00:23:26.977Z,38.17
2023-05-14T00:26:31.443Z,37.50
2023-05-14T00:29:34.486Z,37.13
2023-05-14T00:32:37.582Z,39.50
2023-05-14T00:35:40.695Z,37.97
2023-05-14T00:38:43.834Z,38.50
2023-05-14T00:41:48.334Z,36.67
2023-05-14T00:44:51.329Z,38.60
2023-05-14T00:47:54.746Z,40.03
2023-05-14T00:50:58.028Z,38.53
2023-05-14T00:54:01.105Z,39.70
2023-05-14T00:57:07.498Z,37.73
2023-05-14T01:00:11.332Z,39.77
2023-05-14T01:03:14.524Z,39.07
2023-05-14T01:06:25.913Z,40.27
2023-05-14T01:09:37.578Z,38.93
2023-05-14T01:12:50.686Z,39.80
2023-05-14T01:15:57.175Z,40.27
2023-05-14T01:19:02.619Z,40.03
2023-05-14T01:22:07.422Z,41.67
2023-05-14T01:25:11.200Z,40.50
2023-05-14T01:28:19.139Z,41.17
2023-05-14T01:31:28.794Z,40.73
2023-05-14T01:34:33.037Z,39.70
2023-05-14T01:37:39.160Z,39.70
2023-05-14T01:40:43.096Z,40.93
2023-05-14T01:43:46.793Z,40.07
2023-05-14T01:46:49.856Z,40.70
2023-05-14T01:49:52.866Z,41.30
2023-05-14T01:52:57.542Z,39.87
2023-05-14T01:56:00.628Z,40.03
2023-05-14T01:59:03.696Z,39.77
2023-05-14T02:02:06.772Z,39.63
2023-05-14T02:05:11.544Z,39.70
2023-05-14T02:08:16.109Z,40.30
2023-05-14T02:11:19.306Z,39.97
2023-05-14T02:14:22.434Z,39.93
2023-05-14T02:17:27.388Z,39.73
2023-05-14T02:20:30.465Z,40.57
2023-05-14T02:23:41.619Z,40.67
2023-05-14T02:26:47.625Z,37.27
2023-05-14T02:29:50.722Z,39.17
2023-05-14T02:32:53.943Z,39.50
2023-05-14T02:35:57.125Z,40.40
2023-05-14T02:39:01.964Z,40.30
2023-05-14T02:42:05.319Z,38.97
2023-05-14T02:45:09.054Z,37.57
2023-05-14T02:48:12.179Z,39.30
2023-05-14T02:51:16.295Z,38.73
2023-05-14T02:54:20.786Z,39.17
2023-05-14T02:57:23.930Z,40.17
2023-05-14T03:00:26.995Z,39.47
2023-05-14T03:03:31.017Z,41.33
2023-05-14T03:06:34.732Z,38.80
2023-05-14T03:09:39.177Z,38.00
2023-05-14T03:12:42.286Z,36.97
2023-05-14T03:15:45.453Z,36.40
2023-05-14T03:18:48.776Z,37.33
2023-05-14T03:21:51.835Z,36.23
2023-05-14T03:24:56.389Z,34.20
2023-05-14T03:27:59.497Z,35.07
2023-05-14T03:31:02.710Z,34.83
2023-05-14T03:34:05.890Z,36.23
2023-05-14T03:37:08.936Z,37.43
2023-05-14T03:40:14.092Z,34.23
2023-05-14T03:43:17.554Z,34.87
2023-05-14T03:46:20.630Z,34.27
2023-05-14T03:49:23.736Z,40.40
2023-05-14T03:52:26.812Z,39.10
2023-05-14T03:55:31.379Z,34.63
2023-05-14T03:58:34.499Z,32.43
2023-05-14T04:01:37.701Z,32.73
2023-05-14T04:04:41.148Z,32.67
2023-05-14T04:07:45.893Z,31.20
2023-05-14T04:10:50.397Z,30.13
2023-05-14T04:13:53.553Z,33.10
2023-05-14T04:16:56.735Z,32.77
2023-05-14T04:19:59.820Z,31.73
2023-05-14T04:23:02.909Z,30.47
2023-05-14T04:26:07.505Z,29.87
2023-05-14T04:29:10.629Z,31.00
2023-05-14T04:32:14.133Z,30.13
2023-05-14T04:35:17.331Z,30.53
2023-05-14T04:38:20.491Z,29.13
2023-05-14T04:41:24.981Z,28.03
2023-05-14T04:44:28.138Z,27.20
2023-05-14T04:47:31.275Z,29.53
2023-05-14T04:50:34.425Z,28.17
2023-05-14T04:53:37.620Z,28.03
2023-05-14T04:56:42.063Z,27.47
2023-05-14T04:59:45.199Z,26.80
2023-05-14T05:02:48.371Z,27.93
2023-05-14T05:05:52.110Z,27.43
2023-05-14T05:08:55.132Z,28.40
2023-05-14T05:11:59.514Z,31.23
2023-05-14T05:15:02.539Z,34.30
2023-05-14T05:18:06.520Z,35.13
2023-05-14T05:21:09.547Z,26.90
2023-05-14T05:24:13.532Z,40.30
2023-05-14T05:27:18.418Z,35.77
2023-05-14T05:30:21.783Z,32.10
2023-05-14T05:33:24.981Z,48.67
2023-05-14T05:36:28.780Z,41.57
2023-05-14T05:39:35.311Z,33.43
2023-05-14T05:42:40.201Z,26.77
2023-05-14T05:45:43.246Z,31.83
2023-05-14T05:48:46.291Z,26.67
2023-05-14T05:51:49.269Z,30.27
2023-05-14T05:54:52.290Z,22.77
2023-05-14T05:57:56.755Z,27.00
2023-05-14T06:01:00.258Z,22.50
2023-05-14T06:04:04.569Z,25.17
2023-05-14T06:07:07.592Z,23.97
2023-05-14T06:10:10.761Z,28.20
2023-05-14T06:13:15.222Z,30.70
2023-05-14T06:16:18.372Z,23.93
2023-05-14T06:19:21.510Z,33.57
2023-05-14T06:22:25.053Z,37.33
2023-05-14T06:25:28.088Z,65.37
2023-05-14T06:28:35.630Z,80.60
2023-05-14T06:31:38.797Z,65.23
2023-05-14T06:34:41.881Z,50.57
2023-05-14T06:37:44.815Z,54.57
2023-05-14T06:40:47.829Z,42.10
2023-05-14T06:43:52.208Z,46.23
2023-05-14T06:46:55.246Z,47.77
2023-05-14T06:49:58.881Z,34.37
2023-05-14T06:53:01.862Z,34.70
2023-05-14T06:56:05.204Z,37.10
2023-05-14T06:59:09.711Z,44.40
2023-05-14T07:02:13.369Z,26.17
2023-05-14T07:05:16.446Z,33.40
2023-05-14T07:08:19.486Z,35.27
2023-05-14T07:11:23.175Z,26.60
2023-05-14T07:14:27.687Z,33.70
2023-05-14T07:17:30.861Z,34.93
2023-05-14T07:20:34.032Z,26.00
2023-05-14T07:23:38.439Z,21.27
2023-05-14T07:26:41.756Z,24.27
2023-05-14T07:29:46.292Z,25.80
2023-05-14T07:32:49.432Z,28.20
2023-05-14T07:35:52.986Z,19.30
2023-05-14T07:38:56.306Z,25.87
2023-05-14T07:41:59.334Z,29.73
2023-05-14T07:45:04.095Z,21.70
2023-05-14T07:48:07.321Z,17.43
2023-05-14T07:51:10.577Z,23.90
2023-05-14T07:54:13.678Z,18.43
2023-05-14T07:57:16.849Z,19.83
2023-05-14T08:00:21.788Z,22.83
2023-05-14T08:03:25.194Z,18.43
2023-05-14T08:06:29.613Z,17.97
2023-05-14T08:09:32.697Z,20.90
2023-05-14T08:12:35.729Z,19.50
2023-05-14T08:15:40.279Z,64.80
2023-05-14T08:18:43.316Z,41.53
2023-05-14T08:21:46.484Z,46.70
2023-05-14T08:24:49.723Z,43.37
2023-05-14T08:27:54.192Z,25.77
2023-05-14T08:30:58.648Z,36.63
2023-05-14T08:34:01.977Z,34.30
2023-05-14T08:37:05.271Z,28.37
2023-05-14T08:40:10.267Z,20.73
2023-05-14T08:43:15.775Z,32.93
2023-05-14T08:46:24.653Z,23.23
2023-05-14T08:49:40.383Z,21.00
2023-05-14T08:52:43.500Z,31.17
2023-05-14T08:55:47.252Z,41.60
2023-05-14T08:58:50.296Z,45.47
2023-05-14T09:01:55.873Z,53.07
2023-05-14T09:05:00.960Z,34.97
2023-05-14T09:08:04.011Z,34.10
2023-05-14T09:11:07.111Z,26.60
2023-05-14T09:14:11.388Z,23.13
2023-05-14T09:17:16.678Z,39.97
2023-05-14T09:20:20.262Z,29.13
2023-05-14T09:23:23.264Z,41.97
2023-05-14T09:26:27.270Z,27.73
2023-05-14T09:29:31.205Z,19.67
2023-05-14T09:32:59.331Z,22.60
2023-05-14T09:36:07.285Z,25.10
2023-05-14T09:42:42.797Z,17.97
2023-05-14T09:45:45.818Z,14.23
2023-05-14T09:48:50.389Z,14.57
2023-05-14T09:51:53.533Z,21.00
2023-05-14T09:54:56.790Z,10.60
2023-05-14T09:57:59.852Z,11.73
2023-05-14T10:01:03.701Z,12.67
2023-05-14T10:04:10.304Z,11.03
2023-05-14T10:07:14.185Z,11.63
2023-05-14T10:10:19.866Z,21.23
2023-05-14T10:13:28.601Z,12.43
2023-05-14T10:16:35.412Z,13.47
2023-05-14T10:19:41.076Z,10.77
2023-05-14T10:22:44.153Z,4.73
2023-05-14T10:25:47.513Z,6.87
2023-05-14T10:28:50.954Z,10.00
2023-05-14T10:31:55.850Z,4.33
2023-05-14T10:35:03.156Z,8.37
2023-05-14T10:38:10.075Z,5.43
2023-05-14T10:41:15.756Z,6.13
2023-05-14T10:44:18.911Z,4.63
2023-05-14T10:47:22.576Z,4.67
2023-05-14T10:50:27.916Z,3.90
2023-05-14T10:53:35.701Z,5.93
2023-05-14T10:56:38.785Z,4.77
2023-05-14T10:59:43.664Z,3.80
2023-05-14T11:02:46.972Z,3.50
2023-05-14T11:05:51.663Z,12.10
2023-05-14T11:08:55.637Z,4.00
2023-05-14T11:11:58.696Z,5.50
2023-05-14T11:15:04.697Z,5.00
2023-05-14T11:18:07.827Z,4.40
2023-05-14T11:21:12.336Z,4.07
2023-05-14T11:24:15.444Z,3.40
2023-05-14T11:27:19.011Z,4.50
2023-05-14T11:30:23.090Z,43.77
2023-05-14T11:33:28.690Z,22.63
2023-05-14T11:36:33.024Z,21.27
2023-05-14T11:39:37.662Z,15.23
2023-05-14T11:42:40.739Z,17.87
2023-05-14T11:45:43.895Z,15.27
2023-05-14T11:48:48.838Z,10.07
2023-05-14T11:51:58.561Z,10.60
2023-05-14T11:55:01.572Z,9.40
2023-05-14T11:58:04.628Z,8.77
2023-05-14T12:01:07.683Z,8.70
2023-05-14T12:04:11.166Z,9.33
2023-05-14T12:07:17.515Z,9.07
2023-05-14T12:10:20.633Z,9.57
2023-05-14T12:13:26.465Z,6.60
2023-05-14T12:16:33.184Z,6.30
2023-05-14T12:19:41.865Z,6.13
2023-05-14T12:22:46.219Z,7.20
2023-05-14T12:25:52.532Z,6.43
2023-05-14T12:29:00.686Z,5.77
2023-05-14T12:32:06.046Z,7.00
2023-05-14T12:35:09.888Z,6.10
2023-05-14T12:38:14.302Z,6.50
2023-05-14T12:41:17.450Z,7.77
2023-05-14T12:44:22.638Z,8.43
2023-05-14T12:47:25.810Z,7.40
2023-05-14T12:50:28.883Z,8.03
2023-05-14T12:53:33.401Z,9.03
2023-05-14T12:56:37.825Z,9.03
2023-05-14T12:59:41.149Z,10.50
2023-05-14T13:02:44.316Z,12.20
2023-05-14T13:05:47.479Z,37.13
2023-05-14T13:08:51.891Z,253.23
2023-05-14T13:11:55.026Z,290.30
2023-05-14T13:14:58.045Z,281.87
2023-05-14T13:18:01.108Z,261.73
2023-05-14T13:21:06.508Z,249.90
2023-05-14T13:24:11.243Z,236.10
2023-05-14T13:27:14.255Z,221.83
2023-05-14T13:30:17.919Z,213.53
2023-05-14T13:33:20.924Z,191.80
2023-05-14T13:36:23.973Z,175.20
2023-05-14T13:39:28.333Z,140.77
2023-05-14T13:42:31.527Z,131.53
2023-05-14T13:45:34.563Z,124.00
2023-05-14T13:48:37.742Z,100.60
2023-05-14T13:51:40.772Z,54.33
2023-05-14T13:54:45.117Z,45.37
2023-05-14T13:57:48.170Z,42.77
2023-05-14T14:00:51.421Z,40.93
2023-05-14T14:03:54.497Z,38.80
2023-05-14T14:06:57.775Z,32.20
2023-05-14T14:10:02.398Z,19.87
2023-05-14T14:13:05.405Z,25.53
2023-05-14T14:16:08.532Z,23.03
2023-05-14T14:19:11.740Z,21.10
2023-05-14T14:22:17.388Z,17.20
2023-05-14T14:25:22.067Z,15.60
2023-05-14T14:28:25.524Z,16.47
2023-05-14T14:31:28.599Z,13.33
2023-05-14T14:34:31.587Z,12.60
2023-05-14T14:37:34.654Z,12.00
2023-05-14T14:40:39.077Z,13.90
2023-05-14T14:43:43.553Z,14.37
2023-05-14T14:46:46.553Z,17.87
2023-05-14T14:49:49.502Z,15.40
2023-05-14T14:52:52.611Z,12.20
2023-05-14T14:55:57.642Z,12.70
2023-05-14T14:59:00.704Z,14.23
2023-05-14T15:02:03.890Z,9.13
2023-05-14T15:05:08.119Z,8.70
2023-05-14T15:08:11.385Z,7.80
2023-05-14T15:11:15.929Z,9.67
2023-05-14T15:14:18.985Z,17.23
2023-05-14T15:17:22.061Z,11.43
2023-05-14T15:20:25.242Z,20.83
2023-05-14T15:23:28.386Z,11.00
2023-05-14T15:26:33.224Z,18.23
2023-05-14T15:29:36.348Z,9.50
2023-05-14T15:32:39.415Z,18.20
2023-05-14T15:35:42.436Z,6.67
2023-05-14T15:38:45.511Z,21.10
2023-05-14T15:41:49.924Z,11.23
2023-05-14T15:44:53.022Z,23.53
2023-05-14T15:47:56.144Z,22.27
2023-05-14T15:50:59.464Z,16.80
2023-05-14T15:54:02.619Z,9.77
2023-05-14T15:57:07.654Z,16.97
2023-05-14T16:00:17.714Z,18.57
2023-05-14T16:03:21.075Z,15.00
2023-05-14T16:06:24.284Z,13.27
2023-05-14T16:09:27.411Z,10.53
2023-05-14T16:12:31.847Z,9.13
2023-05-14T16:15:34.922Z,9.57
2023-05-14T16:18:39.030Z,10.80
2023-05-14T16:21:42.323Z,10.00
2023-05-14T16:24:46.068Z,7.63
2023-05-14T16:27:50.597Z,11.03
2023-05-14T16:30:53.762Z,10.07
2023-05-14T16:33:56.875Z,8.37
2023-05-14T16:37:00.799Z,9.40
2023-05-14T16:40:03.915Z,22.63
2023-05-14T16:43:08.511Z,25.03
2023-05-14T16:46:11.661Z,30.57
2023-05-14T16:49:15.296Z,23.40
2023-05-14T16:52:18.634Z,21.33
2023-05-14T16:55:21.981Z,22.30
2023-05-14T16:58:26.534Z,17.03
2023-05-14T17:01:29.665Z,17.10
2023-05-14T17:04:33.483Z,15.10
2023-05-14T17:07:38.502Z,15.97
2023-05-14T17:10:41.623Z,15.37
2023-05-14T17:13:46.123Z,14.70
2023-05-14T17:16:49.993Z,17.40
2023-05-14T17:19:53.165Z,25.50
2023-05-14T17:22:56.267Z,23.33
2023-05-14T17:25:59.419Z,26.70
2023-05-14T17:29:03.904Z,31.67
2023-05-14T17:32:07.581Z,38.53
2023-05-14T17:35:11.773Z,33.50
2023-05-14T17:38:15.017Z,29.43
2023-05-14T17:41:18.130Z,19.93
2023-05-14T17:44:22.752Z,25.33
2023-05-14T17:47:25.819Z,28.57
2023-05-14T17:50:28.936Z,25.17
2023-05-14T17:53:32.052Z,21.03
2023-05-14T17:56:35.391Z,23.10
2023-05-14T17:59:39.932Z,24.63
2023-05-14T18:02:43.119Z,36.27
2023-05-14T18:05:46.329Z,28.60
2023-05-14T18:08:50.030Z,27.90
2023-05-14T18:11:54.660Z,28.80
2023-05-14T18:15:00.709Z,25.63
2023-05-14T18:18:03.928Z,32.50
2023-05-14T18:21:07.047Z,21.37
2023-05-14T18:24:10.504Z,23.80
2023-05-14T18:27:13.655Z,18.90
2023-05-14T18:30:18.230Z,17.03
2023-05-14T18:33:21.248Z,21.30
2023-05-14T18:36:24.334Z,21.53
2023-05-14T18:39:27.826Z,19.47
2023-05-14T18:42:30.903Z,20.13
2023-05-14T18:45:35.491Z,24.37
2023-05-14T18:48:38.548Z,19.87
2023-05-14T18:51:41.664Z,18.90
2023-05-14T18:54:44.749Z,25.57
2023-05-14T18:57:47.973Z,16.33
2023-05-14T19:00:52.933Z,16.30
2023-05-14T19:03:56.262Z,22.50
2023-05-14T19:06:59.721Z,18.70
2023-05-14T19:10:03.761Z,22.77
2023-05-14T19:13:06.811Z,32.83
2023-05-14T19:16:11.602Z,28.53
2023-05-14T19:19:15.158Z,28.97
2023-05-14T19:22:19.697Z,25.57
2023-05-14T19:25:22.832Z,29.57
2023-05-14T19:28:25.939Z,20.80
2023-05-14T19:31:30.485Z,33.77
2023-05-14T19:34:33.640Z,31.70
2023-05-14T19:37:36.693Z,25.83
2023-05-14T19:40:39.701Z,31.70
2023-05-14T19:43:42.830Z,25.07
2023-05-14T19:46:47.380Z,31.00
2023-05-14T19:49:50.520Z,21.47
2023-05-14T19:52:53.560Z,21.30
2023-05-14T19:55:56.716Z,28.30
2023-05-14T19:58:59.722Z,23.03
2023-05-14T20:02:04.820Z,16.80
2023-05-14T20:05:10.640Z,20.67
2023-05-14T20:08:13.679Z,21.00
2023-05-14T20:11:18.136Z,19.37
2023-05-14T20:14:21.161Z,15.50
2023-05-14T20:17:25.581Z,18.93
2023-05-14T20:20:32.683Z,16.37
2023-05-14T20:23:36.443Z,12.60
2023-05-14T20:26:39.479Z,26.07
2023-05-14T20:29:42.474Z,47.10
2023-05-14T20:32:46.959Z,39.83
2023-05-14T20:35:50.074Z,35.37
2023-05-14T20:38:53.557Z,27.57
2023-05-14T20:41:56.540Z,34.07
2023-05-14T20:44:59.540Z,22.13
2023-05-14T20:48:08.090Z,21.00
2023-05-14T20:51:11.208Z,22.00
2023-05-14T20:54:14.235Z,19.60
2023-05-14T20:57:17.742Z,22.27
2023-05-14T21:00:21.259Z,25.30
2023-05-14T21:03:25.832Z,20.80
2023-05-14T21:06:28.985Z,19.57
2023-05-14T21:09:31.981Z,22.53
2023-05-14T21:12:35.059Z,18.37
2023-05-14T21:15:38.191Z,17.80
2023-05-14T21:18:42.572Z,15.60
2023-05-14T21:21:45.778Z,17.63
2023-05-14T21:24:48.783Z,15.23
2023-05-14T21:27:51.808Z,15.87
2023-05-14T21:30:54.803Z,16.33
2023-05-14T21:33:59.190Z,14.83
2023-05-14T21:37:02.217Z,14.50
2023-05-14T21:40:05.511Z,16.43
2023-05-14T21:43:08.442Z,14.60
2023-05-14T21:46:11.520Z,15.47
2023-05-14T21:49:15.911Z,15.07
2023-05-14T21:52:18.961Z,14.37
2023-05-14T21:55:22.366Z,15.60
2023-05-14T21:58:25.758Z,13.40
2023-05-14T22:01:28.876Z,14.00
2023-05-14T22:04:33.441Z,12.77
2023-05-14T22:07:36.498Z,13.23
2023-05-14T22:10:39.455Z,14.53
2023-05-14T22:13:42.500Z,12.23
2023-05-14T22:16:45.639Z,14.37
2023-05-14T22:19:50.164Z,13.10
2023-05-14T22:22:53.252Z,11.80
2023-05-14T22:25:56.300Z,11.77
2023-05-14T22:28:59.302Z,12.13
2023-05-14T22:32:02.279Z,11.90
2023-05-14T22:35:07.060Z,12.97
2023-05-14T22:38:10.108Z,12.10
2023-05-14T22:41:13.603Z,12.03
2023-05-14T22:44:16.564Z,11.80
2023-05-14T22:47:19.655Z,12.33
2023-05-14T22:50:24.098Z,11.27
2023-05-14T22:53:27.093Z,11.50
2023-05-14T22:56:30.175Z,10.83
2023-05-14T22:59:33.183Z,11.07
2023-05-14T23:02:36.407Z,11.30
2023-05-14T23:05:40.937Z,10.90
2023-05-14T23:08:43.967Z,10.00
2023-05-14T23:11:47.394Z,10.00
2023-05-14T23:14:50.407Z,9.67
2023-05-14T23:17:53.590Z,10.00
2023-05-14T23:20:58.257Z,9.40
2023-05-14T23:24:01.277Z,10.60
2023-05-14T23:27:04.529Z,9.90
2023-05-14T23:30:08.661Z,10.10
2023-05-14T23:33:11.955Z,9.57
2023-05-14T23:36:16.696Z,9.23
2023-05-14T23:39:19.745Z,9.83
2023-05-14T23:42:22.751Z,9.67
2023-05-14T23:45:26.115Z,8.30
2023-05-14T23:48:29.560Z,9.23
2023-05-14T23:51:34.010Z,9.20
2023-05-14T23:54:37.070Z,8.60
2023-05-14T23:57:41.018Z,9.00
